sensor_id;sensor_type;location;lat;lon;timestamp;temperature;humidity
4820;DHT22;2424;49.696;6.630;2023-12-20T00:04:49;5.10;99.90
4820;DHT22;2424;49.696;6.630;2023-12-20T00:10:11;5.10;99.90
4820;DHT22;2424;49.696;6.630;2023-12-20T00:15:35;5.10;99.90
4820;DHT22;2424;49.696;6.630;2023-12-20T00:20:57;5.10;99.90
4820;DHT22;2424;49.696;6.630;2023-12-20T00:26:19;5.10;99.90
4820;DHT22;2424;49.696;6.630;2023-12-20T00:31:42;5.10;99.90
4820;DHT22;2424;49.696;6.630;2023-12-20T00:37:04;5.10;99.90
4820;DHT22;2424;49.696;6.630;2023-12-20T00:42:26;5.20;99.90
4820;DHT22;2424;49.696;6.630;2023-12-20T00:47:50;5.20;99.90
4820;DHT22;2424;49.696;6.630;2023-12-20T00:53:12;5.20;99.90
4820;DHT22;2424;49.696;6.630;2023-12-20T00:58:34;5.20;99.90
4820;DHT22;2424;49.696;6.630;2023-12-20T01:03:57;5.20;99.90
4820;DHT22;2424;49.696;6.630;2023-12-20T01:09:20;5.20;99.90
4820;DHT22;2424;49.696;6.630;2023-12-20T01:14:43;5.20;99.90
4820;DHT22;2424;49.696;6.630;2023-12-20T01:20:08;5.20;99.90
4820;DHT22;2424;49.696;6.630;2023-12-20T01:25:30;5.10;99.90
4820;DHT22;2424;49.696;6.630;2023-12-20T01:30:52;5.10;99.90
4820;DHT22;2424;49.696;6.630;2023-12-20T01:36:15;5.20;99.90
4820;DHT22;2424;49.696;6.630;2023-12-20T01:41:38;5.10;99.90
4820;DHT22;2424;49.696;6.630;2023-12-20T01:47:00;5.20;99.90
4820;DHT22;2424;49.696;6.630;2023-12-20T01:52:25;5.10;99.90
4820;DHT22;2424;49.696;6.630;2023-12-20T01:57:47;5.20;99.90
4820;DHT22;2424;49.696;6.630;2023-12-20T02:03:09;5.20;99.90
4820;DHT22;2424;49.696;6.630;2023-12-20T02:08:33;5.20;99.90
4820;DHT22;2424;49.696;6.630;2023-12-20T02:13:55;5.20;99.90
4820;DHT22;2424;49.696;6.630;2023-12-20T02:19:18;5.20;99.90
4820;DHT22;2424;49.696;6.630;2023-12-20T02:24:43;5.20;99.90
4820;DHT22;2424;49.696;6.630;2023-12-20T02:30:06;5.20;99.90
4820;DHT22;2424;49.696;6.630;2023-12-20T02:35:28;5.20;99.90
4820;DHT22;2424;49.696;6.630;2023-12-20T02:40:51;5.20;99.90
4820;DHT22;2424;49.696;6.630;2023-12-20T02:46:15;5.20;99.90
4820;DHT22;2424;49.696;6.630;2023-12-20T02:51:37;5.20;99.90
4820;DHT22;2424;49.696;6.630;2023-12-20T02:57:01;5.20;99.90
4820;DHT22;2424;49.696;6.630;2023-12-20T03:02:23;5.20;99.90
4820;DHT22;2424;49.696;6.630;2023-12-20T03:07:45;5.20;99.90
4820;DHT22;2424;49.696;6.630;2023-12-20T03:13:09;5.20;99.90
4820;DHT22;2424;49.696;6.630;2023-12-20T03:18:31;5.20;99.90
4820;DHT22;2424;49.696;6.630;2023-12-20T03:23:53;5.20;99.90
4820;DHT22;2424;49.696;6.630;2023-12-20T03:29:16;5.20;99.90
4820;DHT22;2424;49.696;6.630;2023-12-20T03:34:38;5.20;99.90
4820;DHT22;2424;49.696;6.630;2023-12-20T03:40:00;5.10;99.90
4820;DHT22;2424;49.696;6.630;2023-12-20T03:45:24;5.10;99.90
4820;DHT22;2424;49.696;6.630;2023-12-20T03:50:46;5.10;99.90
4820;DHT22;2424;49.696;6.630;2023-12-20T03:56:08;5.10;99.90
4820;DHT22;2424;49.696;6.630;2023-12-20T04:01:31;5.00;99.90
4820;DHT22;2424;49.696;6.630;2023-12-20T04:06:53;4.90;99.90
4820;DHT22;2424;49.696;6.630;2023-12-20T04:12:16;5.00;99.90
4820;DHT22;2424;49.696;6.630;2023-12-20T04:17:39;4.90;99.90
4820;DHT22;2424;49.696;6.630;2023-12-20T04:23:01;4.90;99.90
4820;DHT22;2424;49.696;6.630;2023-12-20T04:28:23;4.70;99.90
4820;DHT22;2424;49.696;6.630;2023-12-20T04:33:47;4.70;99.90
4820;DHT22;2424;49.696;6.630;2023-12-20T04:39:09;4.60;99.90
4820;DHT22;2424;49.696;6.630;2023-12-20T04:44:31;4.60;99.90
4820;DHT22;2424;49.696;6.630;2023-12-20T04:49:54;4.60;99.90
4820;DHT22;2424;49.696;6.630;2023-12-20T04:55:17;4.50;99.90
4820;DHT22;2424;49.696;6.630;2023-12-20T05:00:39;4.50;99.90
4820;DHT22;2424;49.696;6.630;2023-12-20T05:06:02;4.40;99.90
4820;DHT22;2424;49.696;6.630;2023-12-20T05:11:25;4.40;99.90
4820;DHT22;2424;49.696;6.630;2023-12-20T05:16:47;4.40;99.90
4820;DHT22;2424;49.696;6.630;2023-12-20T05:22:10;4.40;99.90
4820;DHT22;2424;49.696;6.630;2023-12-20T05:27:32;4.40;99.90
4820;DHT22;2424;49.696;6.630;2023-12-20T05:32:54;4.40;99.90
4820;DHT22;2424;49.696;6.630;2023-12-20T05:38:17;4.40;99.90
4820;DHT22;2424;49.696;6.630;2023-12-20T05:43:40;4.40;99.90
4820;DHT22;2424;49.696;6.630;2023-12-20T05:49:02;4.40;99.90
4820;DHT22;2424;49.696;6.630;2023-12-20T05:54:25;4.30;99.90
4820;DHT22;2424;49.696;6.630;2023-12-20T05:59:47;4.30;99.90
4820;DHT22;2424;49.696;6.630;2023-12-20T06:05:09;4.30;99.90
4820;DHT22;2424;49.696;6.630;2023-12-20T06:10:32;4.20;99.90
4820;DHT22;2424;49.696;6.630;2023-12-20T06:15:55;4.30;99.90
4820;DHT22;2424;49.696;6.630;2023-12-20T06:21:17;4.30;99.90
4820;DHT22;2424;49.696;6.630;2023-12-20T06:26:41;4.30;99.90
4820;DHT22;2424;49.696;6.630;2023-12-20T06:32:04;4.20;99.90
4820;DHT22;2424;49.696;6.630;2023-12-20T06:37:26;4.20;99.90
4820;DHT22;2424;49.696;6.630;2023-12-20T06:42:49;4.30;99.90
4820;DHT22;2424;49.696;6.630;2023-12-20T06:48:11;4.30;99.90
4820;DHT22;2424;49.696;6.630;2023-12-20T06:53:34;4.30;99.90
4820;DHT22;2424;49.696;6.630;2023-12-20T06:58:57;4.30;99.90
4820;DHT22;2424;49.696;6.630;2023-12-20T07:04:19;4.30;99.90
4820;DHT22;2424;49.696;6.630;2023-12-20T07:09:42;4.30;99.90
4820;DHT22;2424;49.696;6.630;2023-12-20T07:15:07;4.30;99.90
4820;DHT22;2424;49.696;6.630;2023-12-20T07:20:29;4.30;99.90
4820;DHT22;2424;49.696;6.630;2023-12-20T07:25:51;4.30;99.90
4820;DHT22;2424;49.696;6.630;2023-12-20T07:31:15;4.30;99.90
4820;DHT22;2424;49.696;6.630;2023-12-20T07:36:37;4.30;99.90
4820;DHT22;2424;49.696;6.630;2023-12-20T07:41:59;4.20;99.90
4820;DHT22;2424;49.696;6.630;2023-12-20T07:47:23;4.20;99.90
4820;DHT22;2424;49.696;6.630;2023-12-20T07:52:46;4.30;99.90
4820;DHT22;2424;49.696;6.630;2023-12-20T07:58:08;4.30;99.90
4820;DHT22;2424;49.696;6.630;2023-12-20T08:03:31;4.30;99.90
4820;DHT22;2424;49.696;6.630;2023-12-20T08:08:53;4.40;99.90
4820;DHT22;2424;49.696;6.630;2023-12-20T08:14:15;4.40;99.90
4820;DHT22;2424;49.696;6.630;2023-12-20T08:19:39;4.40;99.90
4820;DHT22;2424;49.696;6.630;2023-12-20T08:25:01;4.40;99.90
4820;DHT22;2424;49.696;6.630;2023-12-20T08:30:23;4.40;99.90
4820;DHT22;2424;49.696;6.630;2023-12-20T08:35:47;4.50;99.90
4820;DHT22;2424;49.696;6.630;2023-12-20T08:41:09;4.50;99.90
4820;DHT22;2424;49.696;6.630;2023-12-20T08:46:31;4.50;99.90
4820;DHT22;2424;49.696;6.630;2023-12-20T08:51:54;4.60;99.90
4820;DHT22;2424;49.696;6.630;2023-12-20T08:57:16;4.60;99.90
4820;DHT22;2424;49.696;6.630;2023-12-20T09:02:38;4.70;99.90
4820;DHT22;2424;49.696;6.630;2023-12-20T09:08:02;4.70;99.90
4820;DHT22;2424;49.696;6.630;2023-12-20T09:13:24;4.70;99.90
4820;DHT22;2424;49.696;6.630;2023-12-20T09:18:48;4.70;99.90
4820;DHT22;2424;49.696;6.630;2023-12-20T09:24:12;4.80;99.90
4820;DHT22;2424;49.696;6.630;2023-12-20T09:29:34;4.80;99.90
4820;DHT22;2424;49.696;6.630;2023-12-20T09:34:56;4.90;99.90
4820;DHT22;2424;49.696;6.630;2023-12-20T09:40:20;4.90;99.90
4820;DHT22;2424;49.696;6.630;2023-12-20T09:45:42;4.90;99.90
4820;DHT22;2424;49.696;6.630;2023-12-20T09:51:07;5.00;99.90
4820;DHT22;2424;49.696;6.630;2023-12-20T09:56:31;5.00;99.90
4820;DHT22;2424;49.696;6.630;2023-12-20T10:01:55;5.00;99.90
4820;DHT22;2424;49.696;6.630;2023-12-20T10:07:18;5.10;99.90
4820;DHT22;2424;49.696;6.630;2023-12-20T10:13:01;5.10;99.90
4820;DHT22;2424;49.696;6.630;2023-12-20T10:18:23;5.10;99.90
4820;DHT22;2424;49.696;6.630;2023-12-20T10:23:45;5.20;99.90
4820;DHT22;2424;49.696;6.630;2023-12-20T10:29:10;5.20;99.90
4820;DHT22;2424;49.696;6.630;2023-12-20T10:34:32;5.20;99.90
4820;DHT22;2424;49.696;6.630;2023-12-20T10:39:55;5.20;99.90
4820;DHT22;2424;49.696;6.630;2023-12-20T10:45:19;5.30;99.90
4820;DHT22;2424;49.696;6.630;2023-12-20T10:50:41;5.20;99.90
4820;DHT22;2424;49.696;6.630;2023-12-20T10:56:05;5.20;99.90
4820;DHT22;2424;49.696;6.630;2023-12-20T11:01:29;5.20;99.90
4820;DHT22;2424;49.696;6.630;2023-12-20T11:06:56;5.20;99.90
4820;DHT22;2424;49.696;6.630;2023-12-20T11:12:29;5.20;99.90
4820;DHT22;2424;49.696;6.630;2023-12-20T11:17:59;5.20;99.90
4820;DHT22;2424;49.696;6.630;2023-12-20T11:23:21;5.20;99.90
4820;DHT22;2424;49.696;6.630;2023-12-20T11:28:45;5.20;99.90
4820;DHT22;2424;49.696;6.630;2023-12-20T11:34:14;5.20;99.90
4820;DHT22;2424;49.696;6.630;2023-12-20T11:39:36;5.30;99.90
4820;DHT22;2424;49.696;6.630;2023-12-20T11:44:59;5.30;99.90
4820;DHT22;2424;49.696;6.630;2023-12-20T11:50:25;5.30;99.90
4820;DHT22;2424;49.696;6.630;2023-12-20T11:55:48;5.30;99.90
4820;DHT22;2424;49.696;6.630;2023-12-20T12:01:11;5.30;99.90
4820;DHT22;2424;49.696;6.630;2023-12-20T12:06:34;5.30;99.90
4820;DHT22;2424;49.696;6.630;2023-12-20T12:11:56;5.30;99.90
4820;DHT22;2424;49.696;6.630;2023-12-20T12:17:18;5.40;99.90
4820;DHT22;2424;49.696;6.630;2023-12-20T12:22:41;5.40;99.90
4820;DHT22;2424;49.696;6.630;2023-12-20T12:28:05;5.50;99.90
4820;DHT22;2424;49.696;6.630;2023-12-20T12:33:28;5.50;99.90
4820;DHT22;2424;49.696;6.630;2023-12-20T12:38:51;5.50;99.90
4820;DHT22;2424;49.696;6.630;2023-12-20T12:44:13;5.60;99.90
4820;DHT22;2424;49.696;6.630;2023-12-20T12:49:35;5.60;99.90
4820;DHT22;2424;49.696;6.630;2023-12-20T12:54:59;5.50;99.90
4820;DHT22;2424;49.696;6.630;2023-12-20T13:00:21;5.60;99.90
4820;DHT22;2424;49.696;6.630;2023-12-20T13:05:43;5.60;99.90
4820;DHT22;2424;49.696;6.630;2023-12-20T13:11:06;5.60;99.90
4820;DHT22;2424;49.696;6.630;2023-12-20T13:16:28;5.60;99.90
4820;DHT22;2424;49.696;6.630;2023-12-20T13:21:51;5.70;99.90
4820;DHT22;2424;49.696;6.630;2023-12-20T13:27:14;5.70;99.90
4820;DHT22;2424;49.696;6.630;2023-12-20T13:32:36;5.70;99.90
4820;DHT22;2424;49.696;6.630;2023-12-20T13:37:58;5.70;99.90
4820;DHT22;2424;49.696;6.630;2023-12-20T13:43:22;5.70;99.90
4820;DHT22;2424;49.696;6.630;2023-12-20T13:48:45;5.70;99.90
4820;DHT22;2424;49.696;6.630;2023-12-20T13:54:07;5.70;99.90
4820;DHT22;2424;49.696;6.630;2023-12-20T13:59:30;5.70;99.90
4820;DHT22;2424;49.696;6.630;2023-12-20T14:04:52;5.70;99.90
4820;DHT22;2424;49.696;6.630;2023-12-20T14:10:15;5.70;99.90
4820;DHT22;2424;49.696;6.630;2023-12-20T14:15:38;5.70;99.90
4820;DHT22;2424;49.696;6.630;2023-12-20T14:21:00;5.70;99.90
4820;DHT22;2424;49.696;6.630;2023-12-20T14:26:22;5.70;99.90
4820;DHT22;2424;49.696;6.630;2023-12-20T14:31:46;5.70;99.90
4820;DHT22;2424;49.696;6.630;2023-12-20T14:37:10;5.70;99.90
4820;DHT22;2424;49.696;6.630;2023-12-20T14:42:32;5.70;99.90
4820;DHT22;2424;49.696;6.630;2023-12-20T14:47:55;5.70;99.90
4820;DHT22;2424;49.696;6.630;2023-12-20T14:53:17;5.70;99.90
4820;DHT22;2424;49.696;6.630;2023-12-20T14:58:39;5.70;99.90
4820;DHT22;2424;49.696;6.630;2023-12-20T15:04:03;5.70;99.90
4820;DHT22;2424;49.696;6.630;2023-12-20T15:09:25;5.80;99.90
4820;DHT22;2424;49.696;6.630;2023-12-20T15:14:50;5.80;99.90
4820;DHT22;2424;49.696;6.630;2023-12-20T15:20:13;5.80;99.90
4820;DHT22;2424;49.696;6.630;2023-12-20T15:25:35;5.80;99.90
4820;DHT22;2424;49.696;6.630;2023-12-20T15:30:57;5.80;99.90
4820;DHT22;2424;49.696;6.630;2023-12-20T15:36:21;5.80;99.90
4820;DHT22;2424;49.696;6.630;2023-12-20T15:41:43;5.80;99.90
4820;DHT22;2424;49.696;6.630;2023-12-20T15:47:05;5.80;99.90
4820;DHT22;2424;49.696;6.630;2023-12-20T15:52:28;5.80;99.90
4820;DHT22;2424;49.696;6.630;2023-12-20T15:57:50;5.80;99.90
4820;DHT22;2424;49.696;6.630;2023-12-20T16:03:12;5.80;99.90
4820;DHT22;2424;49.696;6.630;2023-12-20T16:08:36;5.80;99.90
4820;DHT22;2424;49.696;6.630;2023-12-20T16:13:58;5.80;99.90
4820;DHT22;2424;49.696;6.630;2023-12-20T16:19:20;5.90;99.90
4820;DHT22;2424;49.696;6.630;2023-12-20T16:24:43;5.90;99.90
4820;DHT22;2424;49.696;6.630;2023-12-20T16:30:06;5.90;99.90
4820;DHT22;2424;49.696;6.630;2023-12-20T16:35:28;5.90;99.90
4820;DHT22;2424;49.696;6.630;2023-12-20T16:40:52;5.90;99.90
4820;DHT22;2424;49.696;6.630;2023-12-20T16:46:15;5.90;99.90
4820;DHT22;2424;49.696;6.630;2023-12-20T16:51:37;5.90;99.90
4820;DHT22;2424;49.696;6.630;2023-12-20T16:57:00;5.90;99.90
4820;DHT22;2424;49.696;6.630;2023-12-20T17:02:22;6.00;99.90
4820;DHT22;2424;49.696;6.630;2023-12-20T17:07:44;6.00;99.90
4820;DHT22;2424;49.696;6.630;2023-12-20T17:13:08;6.00;99.90
4820;DHT22;2424;49.696;6.630;2023-12-20T17:18:30;6.00;99.90
4820;DHT22;2424;49.696;6.630;2023-12-20T17:23:52;6.00;99.90
4820;DHT22;2424;49.696;6.630;2023-12-20T17:29:16;6.00;99.90
4820;DHT22;2424;49.696;6.630;2023-12-20T17:34:38;6.00;99.90
4820;DHT22;2424;49.696;6.630;2023-12-20T17:40:00;6.00;99.90
4820;DHT22;2424;49.696;6.630;2023-12-20T17:45:23;6.00;99.90
4820;DHT22;2424;49.696;6.630;2023-12-20T17:50:45;6.00;99.90
4820;DHT22;2424;49.696;6.630;2023-12-20T17:56:07;6.00;99.90
4820;DHT22;2424;49.696;6.630;2023-12-20T18:01:31;5.90;99.90
4820;DHT22;2424;49.696;6.630;2023-12-20T18:06:53;5.90;99.90
4820;DHT22;2424;49.696;6.630;2023-12-20T18:12:15;5.90;99.90
4820;DHT22;2424;49.696;6.630;2023-12-20T18:17:39;5.90;99.90
4820;DHT22;2424;49.696;6.630;2023-12-20T18:23:01;5.90;99.90
4820;DHT22;2424;49.696;6.630;2023-12-20T18:28:24;5.90;99.90
4820;DHT22;2424;49.696;6.630;2023-12-20T18:33:47;6.00;99.90
4820;DHT22;2424;49.696;6.630;2023-12-20T18:39:09;6.00;99.90
4820;DHT22;2424;49.696;6.630;2023-12-20T18:44:31;6.00;99.90
4820;DHT22;2424;49.696;6.630;2023-12-20T18:49:54;6.00;99.90
4820;DHT22;2424;49.696;6.630;2023-12-20T18:55:17;6.00;99.90
4820;DHT22;2424;49.696;6.630;2023-12-20T19:00:39;6.10;99.90
4820;DHT22;2424;49.696;6.630;2023-12-20T19:06:02;6.10;99.90
4820;DHT22;2424;49.696;6.630;2023-12-20T19:11:24;6.20;99.90
4820;DHT22;2424;49.696;6.630;2023-12-20T19:16:47;6.20;99.90
4820;DHT22;2424;49.696;6.630;2023-12-20T19:22:10;6.20;99.90
4820;DHT22;2424;49.696;6.630;2023-12-20T19:27:32;6.20;99.90
4820;DHT22;2424;49.696;6.630;2023-12-20T19:32:54;6.20;99.90
4820;DHT22;2424;49.696;6.630;2023-12-20T19:38:18;6.20;99.90
4820;DHT22;2424;49.696;6.630;2023-12-20T19:43:40;6.10;99.90
4820;DHT22;2424;49.696;6.630;2023-12-20T19:49:02;6.10;99.90
4820;DHT22;2424;49.696;6.630;2023-12-20T19:54:26;6.10;99.90
4820;DHT22;2424;49.696;6.630;2023-12-20T19:59:48;6.10;99.90
4820;DHT22;2424;49.696;6.630;2023-12-20T20:05:10;6.10;99.90
4820;DHT22;2424;49.696;6.630;2023-12-20T20:10:33;6.10;99.90
4820;DHT22;2424;49.696;6.630;2023-12-20T20:15:56;6.10;99.90
4820;DHT22;2424;49.696;6.630;2023-12-20T20:21:18;6.10;99.90
4820;DHT22;2424;49.696;6.630;2023-12-20T20:26:41;6.10;99.90
4820;DHT22;2424;49.696;6.630;2023-12-20T20:32:04;6.10;99.90
4820;DHT22;2424;49.696;6.630;2023-12-20T20:37:27;6.10;99.90
4820;DHT22;2424;49.696;6.630;2023-12-20T20:42:50;6.10;99.90
4820;DHT22;2424;49.696;6.630;2023-12-20T20:48:12;6.10;99.90
4820;DHT22;2424;49.696;6.630;2023-12-20T20:53:35;6.10;99.90
4820;DHT22;2424;49.696;6.630;2023-12-20T20:58:58;6.10;99.90
4820;DHT22;2424;49.696;6.630;2023-12-20T21:04:20;6.10;99.90
4820;DHT22;2424;49.696;6.630;2023-12-20T21:09:42;6.10;99.90
4820;DHT22;2424;49.696;6.630;2023-12-20T21:15:07;6.10;99.90
4820;DHT22;2424;49.696;6.630;2023-12-20T21:20:30;6.20;99.90
4820;DHT22;2424;49.696;6.630;2023-12-20T21:25:52;6.20;99.90
4820;DHT22;2424;49.696;6.630;2023-12-20T21:31:16;6.20;99.90
4820;DHT22;2424;49.696;6.630;2023-12-20T21:36:38;6.20;99.90
4820;DHT22;2424;49.696;6.630;2023-12-20T21:42:00;6.30;99.90
4820;DHT22;2424;49.696;6.630;2023-12-20T21:47:23;6.30;99.90
4820;DHT22;2424;49.696;6.630;2023-12-20T21:52:46;6.30;99.90
4820;DHT22;2424;49.696;6.630;2023-12-20T21:58:08;6.30;99.90
4820;DHT22;2424;49.696;6.630;2023-12-20T22:03:32;6.30;99.90
4820;DHT22;2424;49.696;6.630;2023-12-20T22:08:54;6.40;99.90
4820;DHT22;2424;49.696;6.630;2023-12-20T22:14:16;6.40;99.90
4820;DHT22;2424;49.696;6.630;2023-12-20T22:19:39;6.40;99.90
4820;DHT22;2424;49.696;6.630;2023-12-20T22:25:01;6.30;99.90
4820;DHT22;2424;49.696;6.630;2023-12-20T22:30:24;6.40;99.90
4820;DHT22;2424;49.696;6.630;2023-12-20T22:35:47;6.40;99.90
4820;DHT22;2424;49.696;6.630;2023-12-20T22:41:09;6.40;99.90
4820;DHT22;2424;49.696;6.630;2023-12-20T22:46:32;6.40;99.90
4820;DHT22;2424;49.696;6.630;2023-12-20T22:51:56;6.40;99.90
4820;DHT22;2424;49.696;6.630;2023-12-20T22:57:18;6.40;99.90
4820;DHT22;2424;49.696;6.630;2023-12-20T23:02:40;6.40;99.90
4820;DHT22;2424;49.696;6.630;2023-12-20T23:08:04;6.40;99.90
4820;DHT22;2424;49.696;6.630;2023-12-20T23:13:28;6.40;99.90
4820;DHT22;2424;49.696;6.630;2023-12-20T23:18:50;6.40;99.90
4820;DHT22;2424;49.696;6.630;2023-12-20T23:24:13;6.50;99.90
4820;DHT22;2424;49.696;6.630;2023-12-20T23:29:35;6.50;99.90
4820;DHT22;2424;49.696;6.630;2023-12-20T23:34:57;6.50;99.90
4820;DHT22;2424;49.696;6.630;2023-12-20T23:40:21;6.60;99.90
4820;DHT22;2424;49.696;6.630;2023-12-20T23:45:43;6.60;99.90
4820;DHT22;2424;49.696;6.630;2023-12-20T23:51:05;6.60;99.90
4820;DHT22;2424;49.696;6.630;2023-12-20T23:56:29;6.60;99.90
